Ravenna, Michigan
Current Conditions -  °F | °C
As of 5:55 PM on Wednesday 22 Oct 2014 (Local Time) from KMKG Reporting Station
Few Clouds Few Clouds  
Wind Chill: 47°   Ceiling: Unl
Heat Index: 49°   Visibility: 10mi
Dew Point: 36°   Wind: 6mph
Humidity: 61%   Direction: 290°WNW
Pressure: 30.31"   Gusts: NA
Location:  43.19°N, 85.94°W
Report Text: KMKG 222155Z 29005KT 10SM FEW085 09/02 A3031 RMK AO2 SLP269 T00940022 $
Loading
Personal Weather Stations






























Interactive Weather Map
Tropical Storm Tracking
New forecast layout! Learn more

10-Day Weather Forecast

Advertisements
Track Severe Weather on mobile